Leon — D5BH4 — position and weather

sailwx.info

Track history (hours):
 
Tides and Currents Weather Stations Pressure Air Temp Water Temp Dewpoint Dewpoint Depression Visibility Wind Speed Wind Dir Waves Ship Positions

Leon

Last reported at 2016-Feb-07 21:33 UTC. Time now 2016-Feb-07 21:49 UTC.
Position N 52°07' E 003°44'.

Length 95 m; draft 5.1 m.

Type: Ship (hazmat cat C). MMSI: 636015519.

Date/timePositionNaut miles runAvg speedWind from/ knotsBaromVisibWave heightAir tempDewpointWater temp
2016-Feb-07 21:33N 52°07' E 003°44'3 2.5
2016-Feb-07 20:17N 52°06' E 003°48'7 9.0
2016-Feb-07 19:34N 52°02' E 003°57'1111.0
2016-Feb-07 18:33N 51°56' E 004°12'5 1.5
2016-Feb-07 15:32N 51°53' E 004°17'0 0.0
2016-Feb-07 12:29N 51°53' E 004°17'0 0.0
2016-Feb-07 11:32N 51°53' E 004°17'0 0.0
2016-Feb-06 23:13N 51°53' E 004°17'0 0.0
2016-Feb-06 22:33N 51°53' E 004°17'0 0.0
2016-Feb-06 21:33N 51°53' E 004°17'0 0.0
2016-Feb-06 20:33N 51°53' E 004°17'0 0.0
2016-Feb-06 19:33N 51°53' E 004°17'0 0.0
2016-Feb-06 18:33N 51°53' E 004°17'1 0.8
2016-Feb-06 17:33N 51°53' E 004°18'6 5.5
2016-Feb-06 16:33N 51°57' E 004°11'7 7.0
2016-Feb-06 15:33N 51°60' E 004°01'9 8.7
2016-Feb-06 14:33N 51°58' E 003°47'4 0.4
2016-Feb-06 05:32N 51°55' E 003°43'0 0.0
2016-Feb-06 03:11N 51°55' E 003°43'0 0.0
2016-Feb-06 02:32N 51°55' E 003°43'0 0.0
2016-Feb-06 01:29N 51°55' E 003°43'0 0.0
2016-Feb-05 20:08N 51°55' E 003°43'0 0.1
2016-Feb-05 19:26N 51°55' E 003°43'0 0.0
2016-Feb-05 12:32N 51°55' E 003°43'0 0.0
2016-Feb-05 11:32N 51°55' E 003°43'0 0.0
2016-Feb-05 07:20N 51°55' E 003°43'0 0.0
2016-Feb-05 02:20N 51°55' E 003°43'0 0.0
2016-Feb-05 01:32N 51°55' E 003°43'0 0.0
2016-Feb-04 19:32N 51°55' E 003°43'0 0.0
2016-Feb-04 18:26N 51°55' E 003°43'0 0.0
2016-Feb-04 17:32N 51°55' E 003°43'0 0.0
2016-Feb-04 07:14N 51°55' E 003°43'0 0.0
2016-Feb-04 06:34N 51°55' E 003°43'0 0.1
2016-Feb-04 05:18N 51°55' E 003°43'55 7.8
2016-Feb-03 22:20N 51°33' E 002°22'8 9.9
2016-Feb-03 21:32N 51°27' E 002°14'12 9.4
2016-Feb-03 20:13N 51°16' E 002°06'710.0
2016-Feb-03 19:33N 51°11' E 001°58'1010.4
2016-Feb-03 18:33N 51°05' E 001°45'1010.3
2016-Feb-03 17:33N 50°58' E 001°33'95 6.7
2016-Feb-03 03:28N 50°35' W 000°53'8 9.1
2016-Feb-03 02:34N 50°43' W 000°58'1110.7
2016-Feb-03 01:34N 50°47' W 001°14'5 0.6
2016-Feb-02 17:33N 50°50' W 001°20'0 0.0
2016-Feb-02 16:33N 50°50' W 001°20'0 0.0
2016-Feb-02 15:19N 50°50' W 001°20'0 0.0
2016-Feb-02 14:22N 50°50' W 001°20'0 0.0
2016-Feb-02 12:04N 50°50' W 001°20'0 0.0
2016-Feb-02 11:32N 50°50' W 001°20'0 0.0
2016-Feb-02 10:33N 50°50' W 001°20'0 0.0
2016-Feb-02 09:33N 50°50' W 001°20'0 0.0
2016-Feb-02 08:34N 50°50' W 001°20'0 0.0
2016-Feb-02 07:33N 50°50' W 001°20'0 0.0
2016-Feb-02 06:34N 50°50' W 001°20'0 0.0
2016-Feb-02 05:33N 50°50' W 001°20'0 0.0
2016-Feb-02 04:32N 50°50' W 001°20'0 0.0
2016-Feb-02 03:34N 50°50' W 001°20'0 0.0
2016-Feb-02 02:33N 50°50' W 001°20'0 0.0
2016-Feb-02 01:31N 50°50' W 001°20'0 0.0
2016-Feb-02 00:34N 50°50' W 001°20'0 0.0
2016-Feb-01 23:32N 50°50' W 001°20'0 0.0
2016-Feb-01 22:34N 50°50' W 001°20'0 0.0
2016-Feb-01 21:30N 50°50' W 001°20'0 0.0
2016-Feb-01 20:29N 50°50' W 001°20'0 0.0
2016-Feb-01 19:33N 50°50' W 001°20'2 1.6
2016-Feb-01 18:34N 50°49' W 001°18'8 7.6
2016-Feb-01 17:34N 50°46' W 001°07'4 4.3
2016-Feb-01 16:34N 50°42' W 001°03'0 0.1
2016-Feb-01 15:34N 50°42' W 001°03'0 0.0
2016-Feb-01 14:33N 50°42' W 001°03'0 0.0
2016-Feb-01 13:33N 50°42' W 001°03'0 0.0
2016-Feb-01 12:34N 50°42' W 001°03'0 0.0
2016-Feb-01 11:34N 50°42' W 001°03'0 0.0
2016-Feb-01 10:34N 50°42' W 001°03'0 0.0
2016-Feb-01 09:33N 50°42' W 001°03'0 0.0
2016-Feb-01 08:34N 50°42' W 001°03'0 0.0
2016-Feb-01 07:34N 50°42' W 001°03'0 0.0
2016-Feb-01 06:34N 50°42' W 001°03'1 0.6
2016-Feb-01 05:33N 50°43' W 001°02'7 7.4
2016-Feb-01 04:34N 50°39' W 000°52'7 6.6
2016-Feb-01 03:27N 50°36' W 000°42'5 5.1
2016-Feb-01 02:34N 50°36' W 000°35'5 4.7
2016-Feb-01 01:33N 50°36' W 000°27'30 4.3
2016-Jan-31 18:32N 50°36' E 000°21'8 5.8
2016-Jan-31 17:13N 50°38' E 000°32'5 6.5
2016-Jan-31 16:28N 50°40' E 000°39'7 7.2
2016-Jan-31 15:34N 50°44' E 000°47'16 7.9
2016-Jan-31 13:30N 50°54' E 001°08'8 8.5
2016-Jan-31 12:33N 50°59' E 001°18'1010.5
2016-Jan-31 11:34N 51°06' E 001°30'1212.2
2016-Jan-31 10:34N 51°13' E 001°46'1111.3
2016-Jan-31 09:34N 51°23' E 001°56'8 8.0
2016-Jan-31 08:34N 51°23' E 002°08'10 9.0
2016-Jan-31 07:30N 51°22' E 002°24'9 9.1
2016-Jan-31 06:33N 51°23' E 002°37'8 7.8
2016-Jan-31 05:33N 51°22' E 002°50'8 8.5
2016-Jan-31 04:33N 51°22' E 003°03'8 7.8
2016-Jan-31 03:32N 51°23' E 003°16'8 8.7
2016-Jan-31 02:34N 51°25' E 003°29'7 7.3
2016-Jan-31 01:34N 51°25' E 003°41'9 8.8
2016-Jan-31 00:33N 51°22' E 003°54'6 5.8
2016-Jan-30 23:34N 51°23' E 004°03'9 8.7
2016-Jan-30 22:33N 51°19' E 004°16'4 3.8
2016-Jan-30 21:33N 51°16' E 004°20'1 1.2
2016-Jan-30 20:32N 51°15' E 004°22'0 0.0
2016-Jan-30 19:32N 51°15' E 004°22'0 0.0
2016-Jan-30 18:32N 51°15' E 004°22'0 0.0
2016-Jan-30 17:32N 51°15' E 004°22'0 0.0
2016-Jan-30 16:33N 51°15' E 004°22'0 0.0
2016-Jan-30 15:33N 51°15' E 004°22'0 0.0
2016-Jan-30 14:33N 51°15' E 004°22'0 0.0
2016-Jan-30 13:33N 51°15' E 004°22'0 0.0
2016-Jan-30 12:33N 51°15' E 004°22'0 0.0
2016-Jan-30 11:34N 51°15' E 004°22'0 0.0
2016-Jan-30 10:34N 51°15' E 004°22'0 0.0
2016-Jan-30 09:33N 51°15' E 004°22'0 0.0
2016-Jan-30 08:34N 51°15' E 004°22'0 0.0
2016-Jan-30 07:33N 51°15' E 004°22'0 0.0
2016-Jan-30 06:34N 51°15' E 004°22'0 0.0
2016-Jan-30 05:34N 51°15' E 004°22'0 0.0
2016-Jan-30 04:33N 51°15' E 004°22'0 0.0
2016-Jan-30 03:34N 51°15' E 004°22'0 0.0
2016-Jan-30 02:33N 51°15' E 004°22'0 0.0
2016-Jan-30 01:33N 51°15' E 004°22'0 0.0
2016-Jan-30 00:33N 51°15' E 004°22'0 0.0
2016-Jan-29 23:33N 51°15' E 004°22'0 0.0
2016-Jan-29 22:33N 51°15' E 004°22'0 0.0
2016-Jan-29 21:33N 51°15' E 004°22'0 0.0
2016-Jan-29 20:34N 51°15' E 004°22'0 0.0
2016-Jan-29 19:33N 51°15' E 004°22'0 0.0
2016-Jan-29 18:33N 51°15' E 004°22'0 0.0
2016-Jan-29 17:33N 51°15' E 004°22'0 0.0
2016-Jan-29 16:33N 51°15' E 004°22'0 0.0
2016-Jan-29 15:33N 51°15' E 004°22'0 0.0
2016-Jan-29 14:33N 51°15' E 004°22'0 0.0
2016-Jan-29 13:34N 51°15' E 004°22'0 0.0
2016-Jan-29 12:34N 51°15' E 004°22'0 0.0
2016-Jan-29 11:34N 51°15' E 004°22'0 0.0
2016-Jan-29 10:34N 51°15' E 004°22'0 0.0
2016-Jan-29 09:33N 51°15' E 004°22'0 0.0
2016-Jan-29 08:34N 51°15' E 004°22'0 0.0
2016-Jan-29 07:34N 51°15' E 004°22'0 0.0
2016-Jan-29 06:33N 51°15' E 004°22'0 0.0
2016-Jan-29 05:34N 51°15' E 004°22'0 0.0
2016-Jan-29 04:34N 51°15' E 004°22'0 0.0
2016-Jan-29 03:34N 51°15' E 004°22'0 0.0
2016-Jan-29 02:34N 51°15' E 004°22'0 0.0
2016-Jan-29 01:33N 51°15' E 004°22'0 0.0
2016-Jan-29 00:33N 51°15' E 004°22'0 0.0
2016-Jan-28 23:34N 51°15' E 004°22'0 0.0
2016-Jan-28 22:34N 51°15' E 004°22'4 4.4
2016-Jan-28 21:33N 51°19' E 004°19'  
Track history (hours):
 
Tides and Currents Weather Stations Pressure Air Temp Water Temp Dewpoint Dewpoint Depression Visibility Wind Speed Wind Dir Waves Ship Positions

Leon

Last reported at 2016-Feb-07 21:33 UTC. Time now 2016-Feb-07 21:49 UTC.
Position N 52°07' E 003°44'.

Length 95 m; draft 5.1 m.

Type: Ship (hazmat cat C). MMSI: 636015519.

Date/timePositionNaut miles runAvg speedWind from/ knotsBaromVisibWave heightAir tempDewpointWater temp
2016-Feb-07 21:33N 52°07' E 003°44'3 2.5
2016-Feb-07 20:17N 52°06' E 003°48'7 9.0
2016-Feb-07 19:34N 52°02' E 003°57'1111.0
2016-Feb-07 18:33N 51°56' E 004°12'5 1.5
2016-Feb-07 15:32N 51°53' E 004°17'0 0.0
2016-Feb-07 12:29N 51°53' E 004°17'0 0.0
2016-Feb-07 11:32N 51°53' E 004°17'0 0.0
2016-Feb-06 23:13N 51°53' E 004°17'0 0.0
2016-Feb-06 22:33N 51°53' E 004°17'0 0.0
2016-Feb-06 21:33N 51°53' E 004°17'0 0.0
2016-Feb-06 20:33N 51°53' E 004°17'0 0.0
2016-Feb-06 19:33N 51°53' E 004°17'0 0.0
2016-Feb-06 18:33N 51°53' E 004°17'1 0.8
2016-Feb-06 17:33N 51°53' E 004°18'6 5.5
2016-Feb-06 16:33N 51°57' E 004°11'7 7.0
2016-Feb-06 15:33N 51°60' E 004°01'9 8.7
2016-Feb-06 14:33N 51°58' E 003°47'4 0.4
2016-Feb-06 05:32N 51°55' E 003°43'0 0.0
2016-Feb-06 03:11N 51°55' E 003°43'0 0.0
2016-Feb-06 02:32N 51°55' E 003°43'0 0.0
2016-Feb-06 01:29N 51°55' E 003°43'0 0.0
2016-Feb-05 20:08N 51°55' E 003°43'0 0.1
2016-Feb-05 19:26N 51°55' E 003°43'0 0.0
2016-Feb-05 12:32N 51°55' E 003°43'0 0.0
2016-Feb-05 11:32N 51°55' E 003°43'0 0.0
2016-Feb-05 07:20N 51°55' E 003°43'0 0.0
2016-Feb-05 02:20N 51°55' E 003°43'0 0.0
2016-Feb-05 01:32N 51°55' E 003°43'0 0.0
2016-Feb-04 19:32N 51°55' E 003°43'0 0.0
2016-Feb-04 18:26N 51°55' E 003°43'0 0.0
2016-Feb-04 17:32N 51°55' E 003°43'0 0.0
2016-Feb-04 07:14N 51°55' E 003°43'0 0.0
2016-Feb-04 06:34N 51°55' E 003°43'0 0.1
2016-Feb-04 05:18N 51°55' E 003°43'55 7.8
2016-Feb-03 22:20N 51°33' E 002°22'8 9.9
2016-Feb-03 21:32N 51°27' E 002°14'12 9.4
2016-Feb-03 20:13N 51°16' E 002°06'710.0
2016-Feb-03 19:33N 51°11' E 001°58'1010.4
2016-Feb-03 18:33N 51°05' E 001°45'1010.3
2016-Feb-03 17:33N 50°58' E 001°33'95 6.7
2016-Feb-03 03:28N 50°35' W 000°53'8 9.1
2016-Feb-03 02:34N 50°43' W 000°58'1110.7
2016-Feb-03 01:34N 50°47' W 001°14'5 0.6
2016-Feb-02 17:33N 50°50' W 001°20'0 0.0
2016-Feb-02 16:33N 50°50' W 001°20'0 0.0
2016-Feb-02 15:19N 50°50' W 001°20'0 0.0
2016-Feb-02 14:22N 50°50' W 001°20'0 0.0
2016-Feb-02 12:04N 50°50' W 001°20'0 0.0
2016-Feb-02 11:32N 50°50' W 001°20'0 0.0
2016-Feb-02 10:33N 50°50' W 001°20'0 0.0
2016-Feb-02 09:33N 50°50' W 001°20'0 0.0
2016-Feb-02 08:34N 50°50' W 001°20'0 0.0
2016-Feb-02 07:33N 50°50' W 001°20'0 0.0
2016-Feb-02 06:34N 50°50' W 001°20'0 0.0
2016-Feb-02 05:33N 50°50' W 001°20'0 0.0
2016-Feb-02 04:32N 50°50' W 001°20'0 0.0
2016-Feb-02 03:34N 50°50' W 001°20'0 0.0
2016-Feb-02 02:33N 50°50' W 001°20'0 0.0
2016-Feb-02 01:31N 50°50' W 001°20'0 0.0
2016-Feb-02 00:34N 50°50' W 001°20'0 0.0
2016-Feb-01 23:32N 50°50' W 001°20'0 0.0
2016-Feb-01 22:34N 50°50' W 001°20'0 0.0
2016-Feb-01 21:30N 50°50' W 001°20'0 0.0
2016-Feb-01 20:29N 50°50' W 001°20'0 0.0
2016-Feb-01 19:33N 50°50' W 001°20'2 1.6
2016-Feb-01 18:34N 50°49' W 001°18'8 7.6
2016-Feb-01 17:34N 50°46' W 001°07'4 4.3
2016-Feb-01 16:34N 50°42' W 001°03'0 0.1
2016-Feb-01 15:34N 50°42' W 001°03'0 0.0
2016-Feb-01 14:33N 50°42' W 001°03'0 0.0
2016-Feb-01 13:33N 50°42' W 001°03'0 0.0
2016-Feb-01 12:34N 50°42' W 001°03'0 0.0
2016-Feb-01 11:34N 50°42' W 001°03'0 0.0
2016-Feb-01 10:34N 50°42' W 001°03'0 0.0
2016-Feb-01 09:33N 50°42' W 001°03'0 0.0
2016-Feb-01 08:34N 50°42' W 001°03'0 0.0
2016-Feb-01 07:34N 50°42' W 001°03'0 0.0
2016-Feb-01 06:34N 50°42' W 001°03'1 0.6
2016-Feb-01 05:33N 50°43' W 001°02'7 7.4
2016-Feb-01 04:34N 50°39' W 000°52'7 6.6
2016-Feb-01 03:27N 50°36' W 000°42'5 5.1
2016-Feb-01 02:34N 50°36' W 000°35'5 4.7
2016-Feb-01 01:33N 50°36' W 000°27'30 4.3
2016-Jan-31 18:32N 50°36' E 000°21'8 5.8
2016-Jan-31 17:13N 50°38' E 000°32'5 6.5
2016-Jan-31 16:28N 50°40' E 000°39'7 7.2
2016-Jan-31 15:34N 50°44' E 000°47'16 7.9
2016-Jan-31 13:30N 50°54' E 001°08'8 8.5
2016-Jan-31 12:33N 50°59' E 001°18'1010.5
2016-Jan-31 11:34N 51°06' E 001°30'1212.2
2016-Jan-31 10:34N 51°13' E 001°46'1111.3
2016-Jan-31 09:34N 51°23' E 001°56'8 8.0
2016-Jan-31 08:34N 51°23' E 002°08'10 9.0
2016-Jan-31 07:30N 51°22' E 002°24'9 9.1
2016-Jan-31 06:33N 51°23' E 002°37'8 7.8
2016-Jan-31 05:33N 51°22' E 002°50'8 8.5
2016-Jan-31 04:33N 51°22' E 003°03'8 7.8
2016-Jan-31 03:32N 51°23' E 003°16'8 8.7
2016-Jan-31 02:34N 51°25' E 003°29'7 7.3
2016-Jan-31 01:34N 51°25' E 003°41'9 8.8
2016-Jan-31 00:33N 51°22' E 003°54'6 5.8
2016-Jan-30 23:34N 51°23' E 004°03'9 8.7
2016-Jan-30 22:33N 51°19' E 004°16'4 3.8
2016-Jan-30 21:33N 51°16' E 004°20'1 1.2
2016-Jan-30 20:32N 51°15' E 004°22'0 0.0
2016-Jan-30 19:32N 51°15' E 004°22'0 0.0
2016-Jan-30 18:32N 51°15' E 004°22'0 0.0
2016-Jan-30 17:32N 51°15' E 004°22'0 0.0
2016-Jan-30 16:33N 51°15' E 004°22'0 0.0
2016-Jan-30 15:33N 51°15' E 004°22'0 0.0
2016-Jan-30 14:33N 51°15' E 004°22'0 0.0
2016-Jan-30 13:33N 51°15' E 004°22'0 0.0
2016-Jan-30 12:33N 51°15' E 004°22'0 0.0
2016-Jan-30 11:34N 51°15' E 004°22'0 0.0
2016-Jan-30 10:34N 51°15' E 004°22'0 0.0
2016-Jan-30 09:33N 51°15' E 004°22'0 0.0
2016-Jan-30 08:34N 51°15' E 004°22'0 0.0
2016-Jan-30 07:33N 51°15' E 004°22'0 0.0
2016-Jan-30 06:34N 51°15' E 004°22'0 0.0
2016-Jan-30 05:34N 51°15' E 004°22'0 0.0
2016-Jan-30 04:33N 51°15' E 004°22'0 0.0
2016-Jan-30 03:34N 51°15' E 004°22'0 0.0
2016-Jan-30 02:33N 51°15' E 004°22'0 0.0
2016-Jan-30 01:33N 51°15' E 004°22'0 0.0
2016-Jan-30 00:33N 51°15' E 004°22'0 0.0
2016-Jan-29 23:33N 51°15' E 004°22'0 0.0
2016-Jan-29 22:33N 51°15' E 004°22'0 0.0
2016-Jan-29 21:33N 51°15' E 004°22'0 0.0
2016-Jan-29 20:34N 51°15' E 004°22'0 0.0
2016-Jan-29 19:33N 51°15' E 004°22'0 0.0
2016-Jan-29 18:33N 51°15' E 004°22'0 0.0
2016-Jan-29 17:33N 51°15' E 004°22'0 0.0
2016-Jan-29 16:33N 51°15' E 004°22'0 0.0
2016-Jan-29 15:33N 51°15' E 004°22'0 0.0
2016-Jan-29 14:33N 51°15' E 004°22'0 0.0
2016-Jan-29 13:34N 51°15' E 004°22'0 0.0
2016-Jan-29 12:34N 51°15' E 004°22'0 0.0
2016-Jan-29 11:34N 51°15' E 004°22'0 0.0
2016-Jan-29 10:34N 51°15' E 004°22'0 0.0
2016-Jan-29 09:33N 51°15' E 004°22'0 0.0
2016-Jan-29 08:34N 51°15' E 004°22'0 0.0
2016-Jan-29 07:34N 51°15' E 004°22'0 0.0
2016-Jan-29 06:33N 51°15' E 004°22'0 0.0
2016-Jan-29 05:34N 51°15' E 004°22'0 0.0
2016-Jan-29 04:34N 51°15' E 004°22'0 0.0
2016-Jan-29 03:34N 51°15' E 004°22'0 0.0
2016-Jan-29 02:34N 51°15' E 004°22'0 0.0
2016-Jan-29 01:33N 51°15' E 004°22'0 0.0
2016-Jan-29 00:33N 51°15' E 004°22'0 0.0
2016-Jan-28 23:34N 51°15' E 004°22'0 0.0
2016-Jan-28 22:34N 51°15' E 004°22'4 4.4
2016-Jan-28 21:33N 51°19' E 004°19'  

Dump ship's entire track history